createdAt,value
2023-04-22T00:00:04.613Z,1000.41
2023-04-22T00:01:05.506Z,1000.44
2023-04-22T00:02:05.579Z,1000.41
2023-04-22T00:03:05.335Z,1000.38
2023-04-22T00:04:05.696Z,1000.41
2023-04-22T00:05:05.877Z,1000.34
2023-04-22T00:06:05.877Z,1000.32
2023-04-22T00:07:06.034Z,1000.30
2023-04-22T00:08:07.190Z,1000.21
2023-04-22T00:09:06.452Z,1000.22
2023-04-22T00:10:07.015Z,1000.19
2023-04-22T00:11:06.678Z,1000.22
2023-04-22T00:12:06.903Z,1000.15
2023-04-22T00:13:08.974Z,1000.13
2023-04-22T00:14:08.045Z,1000.14
2023-04-22T00:15:07.421Z,1000.14
2023-04-22T00:16:07.767Z,1000.04
2023-04-22T00:17:07.722Z,1000.10
2023-04-22T00:18:07.900Z,1000.08
2023-04-22T00:19:08.453Z,1000.03
2023-04-22T00:20:08.265Z,1000.06
2023-04-22T00:21:08.426Z,1000.03
2023-04-22T00:22:08.568Z,1000.03
2023-04-22T00:23:09.519Z,999.97
2023-04-22T00:24:08.893Z,999.95
2023-04-22T00:25:09.023Z,999.97
2023-04-22T00:26:09.222Z,999.96
2023-04-22T00:27:09.397Z,1000.00
2023-04-22T00:28:09.551Z,999.96
2023-04-22T00:29:09.675Z,999.98
2023-04-22T00:30:09.841Z,999.92
2023-04-22T00:31:10.063Z,999.97
2023-04-22T00:32:11.038Z,999.90
2023-04-22T00:33:10.493Z,999.87
2023-04-22T00:34:10.496Z,999.92
2023-04-22T00:35:12.476Z,999.87
2023-04-22T00:36:11.477Z,999.89
2023-04-22T00:37:11.973Z,999.82
2023-04-22T00:38:11.982Z,999.82
2023-04-22T00:39:12.302Z,999.85
2023-04-22T00:40:12.379Z,999.86
2023-04-22T00:41:11.606Z,999.85
2023-04-22T00:42:13.876Z,999.89
2023-04-22T00:43:11.979Z,999.89
2023-04-22T00:44:13.013Z,999.83
2023-04-22T00:45:12.979Z,999.84
2023-04-22T00:46:14.015Z,999.86
2023-04-22T00:47:12.790Z,999.89
2023-04-22T00:48:13.547Z,999.86
2023-04-22T00:49:14.479Z,999.89
2023-04-22T00:50:14.021Z,999.90
2023-04-22T00:51:13.238Z,999.92
2023-04-22T00:52:13.405Z,999.88
2023-04-22T00:53:13.529Z,999.92
2023-04-22T00:54:13.670Z,999.95
2023-04-22T00:55:14.478Z,999.91
2023-04-22T00:56:13.959Z,999.92
2023-04-22T00:57:14.123Z,999.91
2023-04-22T00:58:14.254Z,999.84
2023-04-22T00:59:15.374Z,999.92
2023-04-22T01:00:15.525Z,999.89
2023-04-22T01:01:14.782Z,999.92
2023-04-22T01:02:15.114Z,999.85
2023-04-22T01:03:15.276Z,999.85
2023-04-22T01:04:16.228Z,999.83
2023-04-22T01:05:15.469Z,999.85
2023-04-22T01:06:15.638Z,999.86
2023-04-22T01:07:15.805Z,999.83
2023-04-22T01:08:15.958Z,999.90
2023-04-22T01:09:17.029Z,999.81
2023-04-22T01:10:16.273Z,999.84
2023-04-22T01:11:16.438Z,999.81
2023-04-22T01:12:16.618Z,999.84
2023-04-22T01:13:17.037Z,999.86
2023-04-22T01:14:16.933Z,999.77
2023-04-22T01:15:17.988Z,999.83
2023-04-22T01:16:18.024Z,999.80
2023-04-22T01:17:17.432Z,999.78
2023-04-22T01:18:17.577Z,999.78
2023-04-22T01:19:17.735Z,999.74
2023-04-22T01:20:17.899Z,999.72
2023-04-22T01:21:18.561Z,999.71
2023-04-22T01:22:18.191Z,999.73
2023-04-22T01:23:18.347Z,999.67
2023-04-22T01:24:18.492Z,999.67
2023-04-22T01:25:20.533Z,999.61
2023-04-22T01:26:18.762Z,999.68
2023-04-22T01:27:18.930Z,999.63
2023-04-22T01:28:21.492Z,999.62
2023-04-22T01:29:20.050Z,999.63
2023-04-22T01:30:21.012Z,999.59
2023-04-22T01:31:20.554Z,999.60
2023-04-22T01:32:20.098Z,999.59
2023-04-22T01:33:21.036Z,999.62
2023-04-22T01:34:20.291Z,999.53
2023-04-22T01:35:20.422Z,999.58
2023-04-22T01:36:20.536Z,999.59
2023-04-22T01:37:20.752Z,999.61
2023-04-22T01:38:21.507Z,999.57
2023-04-22T01:39:21.889Z,999.61
2023-04-22T01:40:21.235Z,999.72
2023-04-22T01:41:21.998Z,999.68
2023-04-22T01:42:22.544Z,999.61
2023-04-22T01:43:21.737Z,999.65
2023-04-22T01:44:21.891Z,999.71
2023-04-22T01:45:22.116Z,999.64
2023-04-22T01:46:22.362Z,999.68
2023-04-22T01:47:23.000Z,999.63
2023-04-22T01:48:22.600Z,999.65
2023-04-22T01:49:23.888Z,999.62
2023-04-22T01:50:22.862Z,999.63
2023-04-22T01:51:23.003Z,999.64
2023-04-22T01:52:24.505Z,999.58
2023-04-22T01:53:23.335Z,999.66
2023-04-22T01:54:23.587Z,999.59
2023-04-22T01:55:23.701Z,999.62
2023-04-22T01:56:24.537Z,999.55
2023-04-22T01:57:24.053Z,999.58
2023-04-22T01:58:24.169Z,999.65
2023-04-22T01:59:24.396Z,999.63
2023-04-22T02:00:25.545Z,999.61
2023-04-22T02:01:24.913Z,999.61
2023-04-22T02:02:25.164Z,999.66
2023-04-22T02:03:25.328Z,999.67
2023-04-22T02:04:25.512Z,999.66
2023-04-22T02:05:25.617Z,999.65
2023-04-22T02:06:25.777Z,999.68
2023-04-22T02:07:27.009Z,999.68
2023-04-22T02:08:26.115Z,999.65
2023-04-22T02:09:26.281Z,999.67
2023-04-22T02:10:26.440Z,999.66
2023-04-22T02:11:27.900Z,999.67
2023-04-22T02:12:26.756Z,999.67
2023-04-22T02:13:26.917Z,999.68
2023-04-22T02:14:27.072Z,999.68
2023-04-22T02:15:27.233Z,999.71
2023-04-22T02:16:28.520Z,999.70
2023-04-22T02:17:27.508Z,999.70
2023-04-22T02:18:31.005Z,999.71
2023-04-22T02:19:29.541Z,999.64
2023-04-22T02:20:49.026Z,999.68
2023-04-22T02:21:28.257Z,999.69
2023-04-22T02:22:29.071Z,999.68
2023-04-22T02:23:29.588Z,999.72
2023-04-22T02:24:29.586Z,999.69
2023-04-22T02:25:30.506Z,999.64
2023-04-22T02:26:30.507Z,999.71
2023-04-22T02:27:29.560Z,999.66
2023-04-22T02:28:29.408Z,999.60
2023-04-22T02:29:30.552Z,999.63
2023-04-22T02:30:30.558Z,999.69
2023-04-22T02:31:29.958Z,999.67
2023-04-22T02:32:31.580Z,999.66
2023-04-22T02:33:31.058Z,999.70
2023-04-22T02:34:30.560Z,999.60
2023-04-22T02:35:30.708Z,999.67
2023-04-22T02:36:31.570Z,999.63
2023-04-22T02:37:33.471Z,999.62
2023-04-22T02:38:31.200Z,999.64
2023-04-22T02:39:31.350Z,999.64
2023-04-22T02:40:32.081Z,999.66
2023-04-22T02:41:32.708Z,999.60
2023-04-22T02:42:32.085Z,999.64
2023-04-22T02:43:32.086Z,999.66
2023-04-22T02:44:32.247Z,999.61
2023-04-22T02:45:32.454Z,999.57
2023-04-22T02:46:32.685Z,999.58
2023-04-22T02:47:32.831Z,999.58
2023-04-22T02:48:32.972Z,999.59
2023-04-22T02:49:33.129Z,999.47
2023-04-22T02:50:33.277Z,999.37
2023-04-22T02:51:34.071Z,999.46
2023-04-22T02:52:33.549Z,999.42
2023-04-22T02:53:33.680Z,999.33
2023-04-22T02:54:33.824Z,999.38
2023-04-22T02:55:33.981Z,999.37
2023-04-22T02:56:35.014Z,999.36
2023-04-22T02:57:34.270Z,999.35
2023-04-22T02:58:34.437Z,999.34
2023-04-22T02:59:34.606Z,999.28
2023-04-22T03:00:34.794Z,999.31
2023-04-22T03:01:35.005Z,999.23
2023-04-22T03:02:36.228Z,999.21
2023-04-22T03:03:35.536Z,999.25
2023-04-22T03:04:36.571Z,999.26
2023-04-22T03:05:36.545Z,999.22
2023-04-22T03:06:35.868Z,999.27
2023-04-22T03:07:36.054Z,999.19
2023-04-22T03:08:36.207Z,999.23
2023-04-22T03:09:36.406Z,999.16
2023-04-22T03:10:36.550Z,999.17
2023-04-22T03:11:37.565Z,999.16
2023-04-22T03:12:36.962Z,999.19
2023-04-22T03:13:39.018Z,999.16
2023-04-22T03:14:37.398Z,999.17
2023-04-22T03:15:38.572Z,999.16
2023-04-22T03:16:37.790Z,999.17
2023-04-22T03:17:38.020Z,999.22
2023-04-22T03:18:39.017Z,999.18
2023-04-22T03:19:38.703Z,999.12
2023-04-22T03:20:38.445Z,999.19
2023-04-22T03:21:39.064Z,999.16
2023-04-22T03:22:40.483Z,999.18
2023-04-22T03:23:40.543Z,999.17
2023-04-22T03:24:39.148Z,999.20
2023-04-22T03:25:39.574Z,999.19
2023-04-22T03:26:40.075Z,999.16
2023-04-22T03:27:39.697Z,999.16
2023-04-22T03:28:39.857Z,999.20
2023-04-22T03:29:40.860Z,999.16
2023-04-22T03:30:40.138Z,999.10
2023-04-22T03:31:41.092Z,999.16
2023-04-22T03:32:40.507Z,999.15
2023-04-22T03:33:42.031Z,999.11
2023-04-22T03:34:40.877Z,999.13
2023-04-22T03:35:42.032Z,999.01
2023-04-22T03:36:42.090Z,999.06
2023-04-22T03:37:42.044Z,999.03
2023-04-22T03:38:42.565Z,999.01
2023-04-22T03:39:42.043Z,999.01
2023-04-22T03:40:42.120Z,998.93
2023-04-22T03:41:42.247Z,998.93
2023-04-22T03:42:42.356Z,998.88
2023-04-22T03:43:42.515Z,998.94
2023-04-22T03:44:42.645Z,998.87
2023-04-22T03:45:42.938Z,998.86
2023-04-22T03:46:44.054Z,998.92
2023-04-22T03:47:43.420Z,998.75
2023-04-22T03:48:44.069Z,998.85
2023-04-22T03:49:43.672Z,998.82
2023-04-22T03:50:43.794Z,998.79
2023-04-22T03:51:44.567Z,998.84
2023-04-22T03:52:45.036Z,998.84
2023-04-22T03:53:44.260Z,998.95
2023-04-22T03:54:44.432Z,998.84
2023-04-22T03:55:45.562Z,998.83
2023-04-22T03:56:45.809Z,998.76
2023-04-22T03:57:45.046Z,998.78
2023-04-22T03:58:45.204Z,998.79
2023-04-22T03:59:45.597Z,998.85
2023-04-22T04:00:45.591Z,998.83
2023-04-22T04:01:45.716Z,998.85
2023-04-22T04:02:45.976Z,998.82
2023-04-22T04:03:46.816Z,998.86
2023-04-22T04:04:46.616Z,998.85
2023-04-22T04:05:46.433Z,998.81
2023-04-22T04:06:46.505Z,998.85
2023-04-22T04:07:46.655Z,998.85
2023-04-22T04:08:46.819Z,998.90
2023-04-22T04:09:47.931Z,998.85
2023-04-22T04:10:49.045Z,998.73
2023-04-22T04:11:47.291Z,998.79
2023-04-22T04:12:48.538Z,998.83
2023-04-22T04:13:48.573Z,998.83
2023-04-22T04:14:47.809Z,998.81
2023-04-22T04:15:48.547Z,998.83
2023-04-22T04:16:49.057Z,998.79
2023-04-22T04:17:49.045Z,998.76
2023-04-22T04:18:48.427Z,998.80
2023-04-22T04:19:49.578Z,998.69
2023-04-22T04:20:48.803Z,998.68
2023-04-22T04:21:49.597Z,998.72
2023-04-22T04:22:50.055Z,998.69
2023-04-22T04:23:49.416Z,998.61
2023-04-22T04:24:51.055Z,998.63
2023-04-22T04:25:50.592Z,998.59
2023-04-22T04:26:49.978Z,998.61
2023-04-22T04:27:51.947Z,998.59
2023-04-22T04:28:51.041Z,998.55
2023-04-22T04:29:51.550Z,998.59
2023-04-22T04:30:51.558Z,998.58
2023-04-22T04:31:52.288Z,998.65
2023-04-22T04:32:52.098Z,998.68
2023-04-22T04:33:52.037Z,998.62
2023-04-22T04:34:51.530Z,998.61
2023-04-22T04:35:52.432Z,998.60
2023-04-22T04:36:51.790Z,998.51
2023-04-22T04:37:52.541Z,998.58
2023-04-22T04:38:54.346Z,998.59
2023-04-22T04:39:54.000Z,998.53
2023-04-22T04:40:53.041Z,998.51
2023-04-22T04:41:52.544Z,998.50
2023-04-22T04:42:53.578Z,998.50
2023-04-22T04:43:53.540Z,998.52
2023-04-22T04:44:52.968Z,998.45
2023-04-22T04:45:53.130Z,998.52
2023-04-22T04:46:53.371Z,998.38
2023-04-22T04:47:54.128Z,998.41
2023-04-22T04:48:53.647Z,998.40
2023-04-22T04:49:53.815Z,998.36
2023-04-22T04:50:54.550Z,998.26
2023-04-22T04:51:54.210Z,998.23
2023-04-22T04:52:54.368Z,998.22
2023-04-22T04:53:54.519Z,998.30
2023-04-22T04:54:54.806Z,998.30
2023-04-22T04:55:56.623Z,998.25
2023-04-22T04:56:55.591Z,998.27
2023-04-22T04:57:55.350Z,998.27
2023-04-22T04:58:56.988Z,998.30
2023-04-22T04:59:57.052Z,998.28
2023-04-22T05:00:55.913Z,998.26
2023-04-22T05:01:56.612Z,998.28
2023-04-22T05:02:57.183Z,998.24
2023-04-22T05:03:56.685Z,998.20
2023-04-22T05:04:56.919Z,998.15
2023-04-22T05:05:56.824Z,998.22
2023-04-22T05:06:57.547Z,998.14
2023-04-22T05:07:57.161Z,998.16
2023-04-22T05:08:59.052Z,998.15
2023-04-22T05:09:58.052Z,998.18
2023-04-22T05:10:57.715Z,998.12
2023-04-22T05:11:58.133Z,998.15
2023-04-22T05:12:58.601Z,998.09
2023-04-22T05:13:59.100Z,998.05
2023-04-22T05:14:59.053Z,998.09
2023-04-22T05:15:58.553Z,998.16
2023-04-22T05:16:59.663Z,998.10
2023-04-22T05:17:59.155Z,998.16
2023-04-22T05:18:59.123Z,998.18
2023-04-22T05:19:59.257Z,998.19
2023-04-22T05:20:59.386Z,998.18
2023-04-22T05:22:00.158Z,998.18
2023-04-22T05:22:59.709Z,998.07
2023-04-22T05:24:00.119Z,998.11
2023-04-22T05:25:00.032Z,998.02
2023-04-22T05:26:00.223Z,998.08
2023-04-22T05:27:00.414Z,998.04
2023-04-22T05:28:01.133Z,998.10
2023-04-22T05:29:00.804Z,998.14
2023-04-22T05:30:01.601Z,998.01
2023-04-22T05:31:02.138Z,998.01
2023-04-22T05:32:02.197Z,998.00
2023-04-22T05:33:01.671Z,997.98
2023-04-22T05:34:03.583Z,997.95
2023-04-22T05:35:01.829Z,997.90
2023-04-22T05:36:01.952Z,997.92
2023-04-22T05:37:02.119Z,997.86
2023-04-22T05:38:02.315Z,997.94
2023-04-22T05:39:03.569Z,997.86
2023-04-22T05:40:02.687Z,997.97
2023-04-22T05:41:03.566Z,997.86
2023-04-22T05:42:03.088Z,997.80
2023-04-22T05:43:03.274Z,997.86
2023-04-22T05:44:03.482Z,997.91
2023-04-22T05:45:04.605Z,997.85
2023-04-22T05:46:05.655Z,997.78
2023-04-22T05:47:04.607Z,997.75
2023-04-22T05:48:05.171Z,997.81
2023-04-22T05:49:04.476Z,997.78
2023-04-22T05:50:05.137Z,997.78
2023-04-22T05:51:05.580Z,997.72
2023-04-22T05:52:04.945Z,997.73
2023-04-22T05:53:05.083Z,997.76
2023-04-22T05:54:05.212Z,997.65
2023-04-22T05:55:05.341Z,997.68
2023-04-22T05:56:05.442Z,997.70
2023-04-22T05:57:07.594Z,997.65
2023-04-22T05:58:05.804Z,997.64
2023-04-22T05:59:05.946Z,997.61
2023-04-22T06:00:06.070Z,997.61
2023-04-22T06:01:06.259Z,997.60
2023-04-22T06:02:06.550Z,997.60
2023-04-22T06:03:07.717Z,997.59
2023-04-22T06:04:08.396Z,997.57
2023-04-22T06:05:07.297Z,997.55
2023-04-22T06:06:07.174Z,997.54
2023-04-22T06:07:08.151Z,997.56
2023-04-22T06:08:07.510Z,997.56
2023-04-22T06:09:07.694Z,997.54
2023-04-22T06:10:08.664Z,997.48
2023-04-22T06:11:08.049Z,997.43
2023-04-22T06:12:09.146Z,997.33
2023-04-22T06:13:08.425Z,997.29
2023-04-22T06:14:08.642Z,997.27
2023-04-22T06:15:09.620Z,997.22
2023-04-22T06:16:09.549Z,997.17
2023-04-22T06:17:09.990Z,997.08
2023-04-22T06:18:10.574Z,997.04
2023-04-22T06:19:09.554Z,997.01
2023-04-22T06:20:09.696Z,996.99
2023-04-22T06:21:10.575Z,996.96
2023-04-22T06:22:10.082Z,996.95
2023-04-22T06:23:11.106Z,996.96
2023-04-22T06:24:10.478Z,996.89
2023-04-22T06:25:10.661Z,996.88
2023-04-22T06:26:10.766Z,996.81
2023-04-22T06:27:10.994Z,996.77
2023-04-22T06:28:12.118Z,996.89
2023-04-22T06:29:11.242Z,996.71
2023-04-22T06:30:11.407Z,996.80
2023-04-22T06:31:13.125Z,996.72
2023-04-22T06:32:11.715Z,996.76
2023-04-22T06:33:11.964Z,996.74
2023-04-22T06:34:12.082Z,996.68
2023-04-22T06:35:12.330Z,996.76
2023-04-22T06:36:13.118Z,996.61
2023-04-22T06:37:12.626Z,996.51
2023-04-22T06:38:13.754Z,996.57
2023-04-22T06:39:12.968Z,996.58
2023-04-22T06:40:13.622Z,996.49
2023-04-22T06:41:13.258Z,996.46
2023-04-22T06:42:14.093Z,996.44
2023-04-22T06:43:14.089Z,996.34
2023-04-22T06:44:13.709Z,996.24
2023-04-22T06:45:13.832Z,996.29
2023-04-22T06:46:16.105Z,996.33
2023-04-22T06:47:15.149Z,996.22
2023-04-22T06:48:14.517Z,996.19
2023-04-22T06:49:15.585Z,996.19
2023-04-22T06:50:14.791Z,996.19
2023-04-22T06:51:15.160Z,996.16
2023-04-22T06:52:15.649Z,996.19
2023-04-22T06:53:17.085Z,996.17
2023-04-22T06:54:16.137Z,996.14
2023-04-22T06:55:16.634Z,996.16
2023-04-22T06:56:15.890Z,996.14
2023-04-22T06:57:16.584Z,996.18
2023-04-22T06:58:17.095Z,996.09
2023-04-22T06:59:16.345Z,996.06
2023-04-22T07:00:17.083Z,995.91
2023-04-22T07:01:16.820Z,995.82
2023-04-22T07:02:17.097Z,995.78
2023-04-22T07:03:18.218Z,995.72
2023-04-22T07:04:19.139Z,995.57
2023-04-22T07:05:18.134Z,995.59
2023-04-22T07:06:17.685Z,995.46
2023-04-22T07:07:17.824Z,995.52
2023-04-22T07:08:19.516Z,995.47
2023-04-22T07:09:18.126Z,995.41
2023-04-22T07:10:19.085Z,995.36
2023-04-22T07:11:18.642Z,995.39
2023-04-22T07:12:19.085Z,995.31
2023-04-22T07:13:19.654Z,995.23
2023-04-22T07:14:18.912Z,995.13
2023-04-22T07:15:19.051Z,995.18
2023-04-22T07:16:19.681Z,995.08
2023-04-22T07:17:19.497Z,995.08
2023-04-22T07:18:19.585Z,995.07
2023-04-22T07:19:20.627Z,995.04
2023-04-22T07:20:19.875Z,994.98
2023-04-22T07:21:20.022Z,994.91
2023-04-22T07:22:20.170Z,994.84
2023-04-22T07:23:20.333Z,994.81
2023-04-22T07:24:20.467Z,994.75
2023-04-22T07:25:20.632Z,994.65
2023-04-22T07:26:21.640Z,994.51
2023-04-22T07:27:21.017Z,994.44
2023-04-22T07:28:21.191Z,994.35
2023-04-22T07:29:22.150Z,994.27
2023-04-22T07:30:21.656Z,994.24
2023-04-22T07:31:21.689Z,994.18
2023-04-22T07:32:21.844Z,994.16
2023-04-22T07:33:22.591Z,994.06
2023-04-22T07:34:22.122Z,994.11
2023-04-22T07:35:22.270Z,993.98
2023-04-22T07:36:22.408Z,993.96
2023-04-22T07:37:23.141Z,993.89
2023-04-22T07:38:23.663Z,993.85
2023-04-22T07:39:22.908Z,993.73
2023-04-22T07:40:23.074Z,993.45
2023-04-22T07:41:23.213Z,993.24
2023-04-22T07:42:23.362Z,992.76
2023-04-22T07:43:24.596Z,992.51
2023-04-22T07:44:23.724Z,992.41
2023-04-22T07:45:23.868Z,992.33
2023-04-22T07:46:24.640Z,991.70
2023-04-22T07:47:24.341Z,991.64
2023-04-22T07:48:25.595Z,991.33
2023-04-22T07:49:25.647Z,991.05
2023-04-22T07:50:24.958Z,991.09
2023-04-22T07:51:25.596Z,990.93
2023-04-22T07:52:25.243Z,990.61
2023-04-22T07:53:26.628Z,990.42
2023-04-22T07:54:27.985Z,990.15
2023-04-22T07:55:25.802Z,989.93
2023-04-22T07:56:25.973Z,989.85
2023-04-22T07:57:26.643Z,989.89
2023-04-22T07:58:26.686Z,990.20
2023-04-22T07:59:26.419Z,990.31
2023-04-22T08:00:27.187Z,990.27
2023-04-22T08:01:26.759Z,990.18
2023-04-22T08:02:27.012Z,990.24
2023-04-22T08:03:27.289Z,990.34
2023-04-22T08:04:28.432Z,990.38
2023-04-22T08:05:27.584Z,990.24
2023-04-22T08:06:27.495Z,990.02
2023-04-22T08:07:32.898Z,989.89
2023-04-22T08:08:28.782Z,989.74
2023-04-22T08:09:28.663Z,989.67
2023-04-22T08:10:29.118Z,989.70
2023-04-22T08:11:28.210Z,989.71
2023-04-22T08:12:28.371Z,989.72
2023-04-22T08:13:28.559Z,989.65
2023-04-22T08:14:28.695Z,989.65
2023-04-22T08:15:29.641Z,989.69
2023-04-22T08:16:29.828Z,989.62
2023-04-22T08:17:29.189Z,989.63
2023-04-22T08:18:29.365Z,989.55
2023-04-22T08:19:29.508Z,989.64
2023-04-22T08:20:29.657Z,989.65
2023-04-22T08:21:29.815Z,989.61
2023-04-22T08:22:29.999Z,989.69
2023-04-22T08:23:30.139Z,989.62
2023-04-22T08:24:30.276Z,990.09
2023-04-22T08:25:30.433Z,990.18
2023-04-22T08:26:30.594Z,990.21
2023-04-22T08:27:31.176Z,990.27
2023-04-22T08:28:30.930Z,990.33
2023-04-22T08:29:31.070Z,990.42
2023-04-22T08:30:31.228Z,990.37
2023-04-22T08:31:32.223Z,990.49
2023-04-22T08:32:33.658Z,990.59
2023-04-22T08:33:34.123Z,990.62
2023-04-22T08:34:33.134Z,990.72
2023-04-22T08:35:32.118Z,990.87
2023-04-22T08:36:32.250Z,991.13
2023-04-22T08:37:32.392Z,991.15
2023-04-22T08:38:32.607Z,991.19
2023-04-22T08:39:32.763Z,991.16
2023-04-22T08:40:33.014Z,991.11
2023-04-22T08:41:33.177Z,991.13
2023-04-22T08:42:33.382Z,991.17
2023-04-22T08:43:34.173Z,991.24
2023-04-22T08:44:33.680Z,991.30
2023-04-22T08:45:34.669Z,991.20
2023-04-22T08:46:34.659Z,991.18
2023-04-22T08:47:34.196Z,991.17
2023-04-22T08:48:34.282Z,991.25
2023-04-22T08:49:34.423Z,991.30
2023-04-22T08:50:34.569Z,991.48
2023-04-22T08:51:35.185Z,991.39
2023-04-22T08:52:36.573Z,991.45
2023-04-22T08:53:35.188Z,991.63
2023-04-22T08:54:35.330Z,991.50
2023-04-22T08:55:35.459Z,991.53
2023-04-22T08:56:35.627Z,991.48
2023-04-22T08:57:37.639Z,991.80
2023-04-22T08:58:36.635Z,991.75
2023-04-22T08:59:36.655Z,991.78
2023-04-22T09:00:37.180Z,991.65
2023-04-22T09:01:36.540Z,991.79
2023-04-22T09:02:38.187Z,991.84
2023-04-22T09:03:36.805Z,992.02
2023-04-22T09:04:37.061Z,991.89
2023-04-22T09:05:37.678Z,991.97
2023-04-22T09:06:37.292Z,992.15
2023-04-22T09:07:38.140Z,992.31
2023-04-22T09:08:37.755Z,992.25
2023-04-22T09:09:39.478Z,992.38
2023-04-22T09:10:38.041Z,992.43
2023-04-22T09:11:38.695Z,992.64
2023-04-22T09:12:38.436Z,992.52
2023-04-22T09:13:38.578Z,992.56
2023-04-22T09:14:38.699Z,992.61
2023-04-22T09:15:40.528Z,992.59
2023-04-22T09:16:40.131Z,992.61
2023-04-22T09:18:00.310Z,992.64
2023-04-22T09:18:40.457Z,992.62
2023-04-22T09:19:39.892Z,992.64
2023-04-22T09:20:40.683Z,992.66
2023-04-22T09:21:39.912Z,992.65
2023-04-22T09:22:40.069Z,992.71
2023-04-22T09:23:42.159Z,992.80
2023-04-22T09:24:40.359Z,992.72
2023-04-22T09:25:40.499Z,992.68
2023-04-22T09:26:40.617Z,992.73
2023-04-22T09:27:43.161Z,992.71
2023-04-22T09:28:41.080Z,992.74
2023-04-22T09:29:42.211Z,992.73
2023-04-22T09:30:41.449Z,992.78
2023-04-22T09:31:42.620Z,992.78
2023-04-22T09:32:42.775Z,992.73
2023-04-22T09:33:41.932Z,992.77
2023-04-22T09:34:42.071Z,992.79
2023-04-22T09:35:42.225Z,992.89
2023-04-22T09:36:43.199Z,992.88
2023-04-22T09:37:48.821Z,992.95
2023-04-22T09:38:45.214Z,993.00
2023-04-22T09:39:42.922Z,993.00
2023-04-22T09:40:43.065Z,993.10
2023-04-22T09:41:44.150Z,993.13
2023-04-22T09:42:44.155Z,993.15
2023-04-22T09:43:43.548Z,993.16
2023-04-22T09:44:43.681Z,993.24
2023-04-22T09:45:43.873Z,993.08
2023-04-22T09:46:44.046Z,992.98
2023-04-22T09:47:45.688Z,992.90
2023-04-22T09:48:45.223Z,992.88
2023-04-22T09:49:45.197Z,992.80
2023-04-22T09:50:45.222Z,992.73
2023-04-22T09:51:44.972Z,992.68
2023-04-22T09:52:45.115Z,992.64
2023-04-22T09:53:47.656Z,992.61
2023-04-22T09:54:45.505Z,992.63
2023-04-22T09:55:45.667Z,992.52
2023-04-22T09:56:46.880Z,992.48
2023-04-22T09:57:46.018Z,992.44
2023-04-22T09:58:46.197Z,992.37
2023-04-22T09:59:47.159Z,992.31
2023-04-22T10:00:47.207Z,992.26
2023-04-22T10:01:47.683Z,992.33
2023-04-22T10:02:46.971Z,992.17
2023-04-22T10:03:47.212Z,992.08
2023-04-22T10:04:49.159Z,992.10
2023-04-22T10:05:47.514Z,992.06
2023-04-22T10:06:47.662Z,991.98
2023-04-22T10:07:47.847Z,992.06
2023-04-22T10:08:49.163Z,991.98
2023-04-22T10:09:48.149Z,992.02
2023-04-22T10:10:49.170Z,992.01
2023-04-22T10:11:48.537Z,991.96
2023-04-22T10:12:48.723Z,992.05
2023-04-22T10:13:49.707Z,992.09
2023-04-22T10:14:49.075Z,992.16
2023-04-22T10:15:49.265Z,992.15
2023-04-22T10:16:49.482Z,992.31
2023-04-22T10:17:50.173Z,992.21
2023-04-22T10:18:50.757Z,992.33
2023-04-22T10:19:50.553Z,992.36
2023-04-22T10:20:50.225Z,992.34
2023-04-22T10:21:50.400Z,992.45
2023-04-22T10:22:50.590Z,992.42
2023-04-22T10:23:52.705Z,992.37
2023-04-22T10:24:51.672Z,992.46
2023-04-22T10:25:51.727Z,992.43
2023-04-22T10:26:51.401Z,992.38
2023-04-22T10:27:51.587Z,992.31
2023-04-22T10:28:52.556Z,992.34
2023-04-22T10:29:51.919Z,992.31
2023-04-22T10:30:52.739Z,992.53
2023-04-22T10:31:53.201Z,992.35
2023-04-22T10:32:52.459Z,992.48
2023-04-22T10:33:52.641Z,992.44
2023-04-22T10:34:52.785Z,992.56
2023-04-22T10:35:52.958Z,992.52
2023-04-22T10:36:53.085Z,992.51
2023-04-22T10:37:54.208Z,992.47
2023-04-22T10:38:54.682Z,992.53
2023-04-22T10:39:53.666Z,992.48
2023-04-22T10:40:53.813Z,992.45
2023-04-22T10:41:54.265Z,992.31
2023-04-22T10:42:55.170Z,992.42
2023-04-22T10:43:54.418Z,992.48
2023-04-22T10:44:54.578Z,992.48
2023-04-22T10:45:56.773Z,992.37
2023-04-22T10:46:54.949Z,992.38
2023-04-22T10:47:55.739Z,992.32
2023-04-22T10:48:55.277Z,992.35
2023-04-22T10:49:57.174Z,992.34
2023-04-22T10:50:56.172Z,992.30
2023-04-22T10:51:56.270Z,992.43
2023-04-22T10:52:56.675Z,992.25
2023-04-22T10:53:56.725Z,992.11
2023-04-22T10:54:56.378Z,992.04
2023-04-22T10:55:56.594Z,991.98
2023-04-22T10:56:58.366Z,991.89
2023-04-22T10:57:57.939Z,991.85
2023-04-22T10:58:57.091Z,991.85
2023-04-22T10:59:57.715Z,991.90
2023-04-22T11:00:57.441Z,991.94
2023-04-22T11:01:58.386Z,991.93
2023-04-22T11:02:58.000Z,991.99
2023-04-22T11:03:58.073Z,991.86
2023-04-22T11:04:58.179Z,991.85
2023-04-22T11:05:59.687Z,991.86
2023-04-22T11:06:59.190Z,991.96
2023-04-22T11:07:59.686Z,992.02
2023-04-22T11:08:58.802Z,991.97
2023-04-22T11:09:59.690Z,991.99
2023-04-22T11:10:59.086Z,992.21
2023-04-22T11:11:59.272Z,992.16
2023-04-22T11:12:59.465Z,992.24
2023-04-22T11:14:00.184Z,992.27
2023-04-22T11:14:59.703Z,992.22
2023-04-22T11:15:59.884Z,992.29
2023-04-22T11:17:00.049Z,992.26
2023-04-22T11:18:01.122Z,992.39
2023-04-22T11:19:00.395Z,992.57
2023-04-22T11:20:01.271Z,992.62
2023-04-22T11:21:02.187Z,992.64
2023-04-22T11:22:01.691Z,992.76
2023-04-22T11:23:01.081Z,992.75
2023-04-22T11:24:01.262Z,992.75
2023-04-22T11:25:02.233Z,993.02
2023-04-22T11:26:01.636Z,992.95
2023-04-22T11:27:01.830Z,992.91
2023-04-22T11:28:02.027Z,993.08
2023-04-22T11:29:03.203Z,992.98
2023-04-22T11:30:02.373Z,993.07
2023-04-22T11:31:02.591Z,993.00
2023-04-22T11:32:02.779Z,992.98
2023-04-22T11:33:03.029Z,992.89
2023-04-22T11:34:03.130Z,992.88
2023-04-22T11:35:03.764Z,992.88
2023-04-22T11:36:03.451Z,992.94
2023-04-22T11:37:04.203Z,992.88
2023-04-22T11:38:03.740Z,992.96
2023-04-22T11:39:03.915Z,992.89
2023-04-22T11:41:05.172Z,992.80
2023-04-22T11:42:04.318Z,992.88
2023-04-22T11:43:04.497Z,992.86
2023-04-22T11:44:04.667Z,992.75
2023-04-22T11:45:04.817Z,992.63
2023-04-22T11:46:05.047Z,992.60
2023-04-22T11:47:05.087Z,992.69
2023-04-22T11:48:05.267Z,992.61
2023-04-22T11:49:06.205Z,992.60
2023-04-22T11:50:05.733Z,992.58
2023-04-22T11:51:06.724Z,992.51
2023-04-22T11:52:06.737Z,992.49
2023-04-22T11:53:06.710Z,992.71
2023-04-22T11:54:06.235Z,992.69
2023-04-22T11:55:06.436Z,992.78
2023-04-22T11:56:07.202Z,992.78
2023-04-22T11:57:06.857Z,992.72
2023-04-22T11:58:06.997Z,992.67
2023-04-22T11:59:07.740Z,992.74
2023-04-22T12:00:07.389Z,992.82
2023-04-22T12:01:07.557Z,992.72
2023-04-22T12:02:08.656Z,992.69
2023-04-22T12:03:08.306Z,992.73
2023-04-22T12:04:08.270Z,992.71
2023-04-22T12:05:08.345Z,992.74
2023-04-22T12:06:08.517Z,992.69
2023-04-22T12:07:09.203Z,992.72
2023-04-22T12:08:08.796Z,992.88
2023-04-22T12:09:10.746Z,992.87
2023-04-22T12:10:09.138Z,992.80
2023-04-22T12:11:09.308Z,992.77
2023-04-22T12:12:12.189Z,992.84
2023-04-22T12:13:09.653Z,992.81
2023-04-22T12:14:09.842Z,992.97
2023-04-22T12:15:11.518Z,992.88
2023-04-22T12:16:10.239Z,992.83
2023-04-22T12:17:10.441Z,992.86
2023-04-22T12:18:10.512Z,992.85
2023-04-22T12:19:10.658Z,992.82
2023-04-22T12:20:10.820Z,992.79
2023-04-22T12:21:12.224Z,992.93
2023-04-22T12:22:11.101Z,992.94
2023-04-22T12:23:11.256Z,992.94
2023-04-22T12:24:12.245Z,992.91
2023-04-22T12:25:12.867Z,993.03
2023-04-22T12:26:12.889Z,993.03
2023-04-22T12:27:12.087Z,992.85
2023-04-22T12:28:33.721Z,992.78
2023-04-22T12:29:13.253Z,992.78
2023-04-22T12:30:12.661Z,992.71